createdAt,value
2019-05-01T00:03:50.151Z,8.82
2019-05-01T00:08:53.540Z,8.99
2019-05-01T00:13:56.529Z,8.85
2019-05-01T00:18:59.515Z,8.74
2019-05-01T00:24:02.525Z,8.35
2019-05-01T00:29:05.793Z,8.32
2019-05-01T00:34:08.769Z,8.17
2019-05-01T00:39:13.351Z,8.15
2019-05-01T00:44:16.306Z,8.04
2019-05-01T00:49:19.351Z,8.31
2019-05-01T00:54:23.025Z,8.35
2019-05-01T00:59:45.594Z,7.74
2019-05-01T01:04:48.676Z,7.29
2019-05-01T01:09:51.864Z,7.19
2019-05-01T01:14:54.860Z,7.18
2019-05-01T01:19:57.998Z,7.68
2019-05-01T01:25:01.809Z,7.85
2019-05-01T01:30:07.069Z,7.94
2019-05-01T01:35:10.048Z,7.48
2019-05-01T01:40:13.904Z,7.14
2019-05-01T01:45:23.479Z,7.08
2019-05-01T01:50:26.678Z,7.12
2019-05-01T01:55:29.759Z,7.01
2019-05-01T02:00:49.705Z,7.00
2019-05-01T02:05:52.874Z,6.99
2019-05-01T02:10:56.114Z,6.90
2019-05-01T02:15:59.072Z,6.69
2019-05-01T02:21:02.062Z,6.68
2019-05-01T02:26:06.759Z,6.80
2019-05-01T02:31:27.435Z,6.68
2019-05-01T02:36:26.306Z,6.67
2019-05-01T02:41:35.417Z,6.94
2019-05-01T02:46:43.776Z,6.95
2019-05-01T02:51:49.413Z,7.00
2019-05-01T02:56:58.380Z,7.04
2019-05-01T03:02:03.431Z,6.94
2019-05-01T03:07:08.598Z,6.88
2019-05-01T03:12:16.576Z,6.90
2019-05-01T03:17:38.924Z,6.57
2019-05-01T03:23:02.228Z,6.65
2019-05-01T03:28:05.658Z,6.53
2019-05-01T03:33:09.116Z,6.56
2019-05-01T03:38:12.556Z,6.70
2019-05-01T03:43:16.194Z,6.71
2019-05-01T03:48:19.999Z,6.81
2019-05-01T03:53:24.625Z,6.95
2019-05-01T03:58:28.198Z,7.05
2019-05-01T04:03:35.430Z,7.17
2019-05-01T04:08:38.699Z,7.27
2019-05-01T04:13:41.898Z,7.35
2019-05-01T04:18:45.495Z,7.33
2019-05-01T04:23:49.419Z,7.32
2019-05-01T04:29:02.924Z,7.42
2019-05-01T04:34:12.817Z,7.70
2019-05-01T04:39:15.905Z,7.88
2019-05-01T04:44:19.678Z,7.93
2019-05-01T04:49:23.184Z,7.99
2019-05-01T04:54:26.834Z,8.08
2019-05-01T04:59:30.263Z,8.33
2019-05-01T05:04:33.602Z,8.41
2019-05-01T05:09:44.643Z,8.52
2019-05-01T05:14:52.577Z,8.64
2019-05-01T05:19:56.193Z,8.96
2019-05-01T05:24:59.807Z,9.00
2019-05-01T05:30:03.740Z,9.16
2019-05-01T05:35:08.627Z,9.41
2019-05-01T05:40:11.989Z,9.57
2019-05-01T05:45:14.995Z,9.44
2019-05-01T05:50:20.834Z,9.45
2019-05-01T05:55:34.398Z,9.44
2019-05-01T06:01:02.897Z,9.43
2019-05-01T06:06:30.329Z,9.50
2019-05-01T06:11:54.994Z,9.62
2019-05-01T06:17:14.553Z,9.87
2019-05-01T06:22:40.730Z,9.99
2019-05-01T06:27:44.727Z,10.13
2019-05-01T06:32:48.657Z,10.53
2019-05-01T06:38:05.763Z,10.54
2019-05-01T06:43:25.214Z,10.40
2019-05-01T06:48:28.221Z,10.43
2019-05-01T06:53:31.325Z,10.24
2019-05-01T06:58:34.619Z,10.52
2019-05-01T07:03:40.747Z,10.62
2019-05-01T07:08:42.741Z,10.94
2019-05-01T07:13:55.397Z,11.10
2019-05-01T07:19:05.721Z,11.08
2019-05-01T07:24:04.013Z,11.35
2019-05-01T07:29:11.064Z,11.55
2019-05-01T07:34:16.604Z,11.75
2019-05-01T07:39:19.587Z,12.05
2019-05-01T07:44:38.889Z,12.34
2019-05-01T07:49:57.487Z,12.70
2019-05-01T07:55:00.748Z,12.80
2019-05-01T08:00:09.286Z,13.12
2019-05-01T08:05:12.303Z,13.64
2019-05-01T08:10:15.655Z,13.79
2019-05-01T08:15:22.621Z,13.99
2019-05-01T08:20:30.207Z,14.05
2019-05-01T08:25:34.379Z,14.06
2019-05-01T08:31:03.201Z,14.37
2019-05-01T08:36:11.670Z,14.43
2019-05-01T08:41:12.995Z,14.88
2019-05-01T08:46:38.526Z,14.33
2019-05-01T08:51:41.776Z,14.59
2019-05-01T08:56:45.044Z,14.77
2019-05-01T09:01:51.906Z,14.79
2019-05-01T09:06:53.953Z,14.85
2019-05-01T09:11:57.098Z,14.86
2019-05-01T09:17:00.059Z,15.29
2019-05-01T09:22:03.233Z,14.95
2019-05-01T09:27:31.847Z,15.27
2019-05-01T09:32:35.192Z,14.97
2019-05-01T09:37:39.433Z,15.27
2019-05-01T09:42:42.433Z,15.56
2019-05-01T09:47:45.624Z,15.29
2019-05-01T09:52:59.738Z,15.72
2019-05-01T09:58:04.032Z,15.53
2019-05-01T10:03:07.685Z,15.53
2019-05-01T10:08:10.822Z,15.92
2019-05-01T10:13:17.614Z,16.22
2019-05-01T10:18:19.015Z,16.38
2019-05-01T10:23:22.068Z,15.90
2019-05-01T10:28:40.264Z,15.51
2019-05-01T10:33:46.088Z,15.85
2019-05-01T10:38:49.215Z,15.87
2019-05-01T10:43:52.238Z,16.02
2019-05-01T10:48:57.365Z,15.40
2019-05-01T10:54:00.495Z,15.84
2019-05-01T10:59:03.586Z,15.69
2019-05-01T11:04:06.807Z,15.85
2019-05-01T11:09:09.932Z,16.23
2019-05-01T11:14:13.210Z,15.98
2019-05-01T11:19:16.238Z,16.51
2019-05-01T11:24:19.434Z,16.77
2019-05-01T11:29:22.429Z,16.65
2019-05-01T11:34:50.622Z,17.00
2019-05-01T11:39:58.036Z,16.63
2019-05-01T11:45:01.015Z,16.97
2019-05-01T11:50:05.345Z,17.03
2019-05-01T11:55:08.458Z,16.66
2019-05-01T12:00:14.199Z,17.13
2019-05-01T12:05:17.268Z,16.81
2019-05-01T12:10:20.341Z,16.71
2019-05-01T12:15:23.620Z,17.05
2019-05-01T12:20:26.563Z,17.17
2019-05-01T12:25:29.603Z,17.58
2019-05-01T12:30:32.705Z,17.55
2019-05-01T12:35:35.738Z,17.12
2019-05-01T12:40:38.710Z,17.20
2019-05-01T12:45:45.057Z,17.13
2019-05-01T12:50:49.980Z,17.23
2019-05-01T12:56:15.561Z,17.51
2019-05-01T13:01:18.866Z,17.30
2019-05-01T13:06:21.959Z,17.31
2019-05-01T13:11:24.910Z,17.22
2019-05-01T13:16:28.112Z,17.05
2019-05-01T13:21:31.081Z,17.42
2019-05-01T13:26:42.194Z,17.28
2019-05-01T13:31:52.793Z,17.36
2019-05-01T13:37:02.886Z,17.45
2019-05-01T13:42:00.825Z,16.97
2019-05-01T13:47:03.845Z,17.45
2019-05-01T13:52:06.955Z,17.34
2019-05-01T13:57:10.132Z,17.17
2019-05-01T14:02:13.332Z,17.08
2019-05-01T14:07:17.094Z,17.68
2019-05-01T14:12:20.450Z,17.95
2019-05-01T14:17:23.554Z,17.25
2019-05-01T14:22:46.133Z,17.25
2019-05-01T14:27:49.107Z,17.51
2019-05-01T14:32:52.131Z,17.02
2019-05-01T14:37:55.538Z,16.78
2019-05-01T14:42:58.974Z,16.87
2019-05-01T14:48:01.975Z,17.20
2019-05-01T14:53:05.325Z,17.51
2019-05-01T14:58:08.516Z,17.02
2019-05-01T15:03:11.672Z,16.89
2019-05-01T15:08:14.638Z,16.88
2019-05-01T15:13:32.614Z,16.59
2019-05-01T15:18:50.334Z,16.97
2019-05-01T15:23:54.019Z,17.34
2019-05-01T15:28:57.143Z,17.40
2019-05-01T15:34:00.448Z,17.34
2019-05-01T15:39:08.564Z,17.29
2019-05-01T15:44:23.623Z,17.21
2019-05-01T15:49:27.239Z,17.23
2019-05-01T15:54:30.802Z,17.17
2019-05-01T15:59:33.880Z,17.15
2019-05-01T16:04:37.143Z,17.02
2019-05-01T16:09:40.313Z,17.12
2019-05-01T16:14:48.417Z,17.16
2019-05-01T16:19:51.556Z,16.70
2019-05-01T16:24:54.639Z,16.47
2019-05-01T16:29:57.851Z,16.37
2019-05-01T16:35:01.068Z,16.45
2019-05-01T16:40:12.573Z,16.46
2019-05-01T16:45:16.274Z,16.36
2019-05-01T16:50:21.928Z,16.27
2019-05-01T16:55:25.120Z,16.17
2019-05-01T17:00:59.317Z,16.03
2019-05-01T17:06:15.639Z,15.92
2019-05-01T17:11:21.626Z,15.67
2019-05-01T17:16:25.556Z,15.72
2019-05-01T17:21:28.614Z,15.60
2019-05-01T17:26:31.651Z,15.40
2019-05-01T17:31:35.039Z,15.29
2019-05-01T17:36:38.182Z,15.17
2019-05-01T17:41:41.888Z,14.99
2019-05-01T17:46:46.891Z,14.87
2019-05-01T17:51:49.962Z,14.68
2019-05-01T17:56:53.780Z,14.56
2019-05-01T18:02:11.583Z,14.46
2019-05-01T18:07:14.861Z,14.32
2019-05-01T18:12:18.176Z,14.15
2019-05-01T18:17:21.601Z,13.83
2019-05-01T18:22:59.859Z,13.76
2019-05-01T18:28:25.001Z,13.82
2019-05-01T18:33:28.160Z,13.44
2019-05-01T18:38:50.803Z,12.94
2019-05-01T18:43:53.947Z,13.01
2019-05-01T18:48:57.016Z,12.76
2019-05-01T18:54:00.299Z,12.95
2019-05-01T18:59:03.647Z,12.38
2019-05-01T19:04:06.874Z,12.57
2019-05-01T19:09:15.177Z,12.63
2019-05-01T19:14:14.851Z,12.33
2019-05-01T19:19:18.166Z,12.54
2019-05-01T19:24:21.317Z,12.62
2019-05-01T19:29:26.645Z,12.72
2019-05-01T19:34:29.556Z,12.73
2019-05-01T19:39:42.944Z,12.55
2019-05-01T19:44:37.581Z,12.72
2019-05-01T19:49:40.684Z,12.91
2019-05-01T19:54:43.741Z,12.88
2019-05-01T19:59:46.726Z,12.88
2019-05-01T20:04:50.565Z,12.89
2019-05-01T20:09:57.072Z,12.89
2019-05-01T20:14:59.743Z,12.88
2019-05-01T20:20:03.774Z,12.63
2019-05-01T20:25:06.934Z,12.38
2019-05-01T20:30:10.496Z,12.30
2019-05-01T20:35:13.597Z,11.73
2019-05-01T20:40:17.051Z,11.29
2019-05-01T20:45:20.433Z,11.05
2019-05-01T20:50:23.626Z,11.04
2019-05-01T20:55:26.600Z,11.05
2019-05-01T21:00:29.764Z,11.12
2019-05-01T21:05:39.648Z,11.12
2019-05-01T21:10:53.183Z,11.14
2019-05-01T21:16:01.122Z,11.13
2019-05-01T21:21:03.336Z,11.11
2019-05-01T21:26:06.352Z,11.10
2019-05-01T21:31:09.479Z,11.05
2019-05-01T21:36:12.603Z,11.07
2019-05-01T21:41:18.335Z,11.05
2019-05-01T21:46:22.731Z,11.02
2019-05-01T21:51:26.084Z,11.13
2019-05-01T21:56:29.172Z,11.06
2019-05-01T22:01:34.794Z,11.08
2019-05-01T22:06:37.175Z,11.03
2019-05-01T22:11:43.511Z,11.07
2019-05-01T22:16:47.219Z,10.99
2019-05-01T22:22:09.870Z,10.97
2019-05-01T22:27:20.572Z,11.14
2019-05-01T22:32:34.424Z,11.16
2019-05-01T22:37:37.484Z,10.99
2019-05-01T22:42:41.005Z,10.99
2019-05-01T22:47:46.107Z,10.75
2019-05-01T22:52:48.936Z,10.52
2019-05-01T22:57:52.454Z,10.55
2019-05-01T23:02:59.986Z,10.54
2019-05-01T23:08:02.471Z,10.59
2019-05-01T23:13:06.795Z,10.53
2019-05-01T23:18:15.361Z,10.65
2019-05-01T23:23:17.109Z,10.47
2019-05-01T23:28:20.589Z,10.42
2019-05-01T23:33:23.579Z,10.40
2019-05-01T23:38:26.716Z,10.37
2019-05-01T23:43:29.681Z,10.50
2019-05-01T23:48:32.644Z,10.55
2019-05-01T23:53:35.717Z,10.63
2019-05-01T23:58:38.776Z,10.43
